createdAt,value
2023-02-19T00:00:36.432Z,20.17
2023-02-19T00:03:18.283Z,25.45
2023-02-19T00:06:07.033Z,19.40
2023-02-19T00:08:51.759Z,22.45
2023-02-19T00:11:39.851Z,26.60
2023-02-19T00:14:27.406Z,31.10
2023-02-19T00:17:14.974Z,24.88
2023-02-19T00:20:05.240Z,21.42
2023-02-19T00:22:52.776Z,23.52
2023-02-19T00:25:39.766Z,24.17
2023-02-19T00:28:27.295Z,23.33
2023-02-19T00:31:18.188Z,19.60
2023-02-19T00:33:50.610Z,26.48
2023-02-19T00:36:22.689Z,25.15
2023-02-19T00:38:51.040Z,26.08
2023-02-19T00:41:20.697Z,23.45
2023-02-19T00:44:11.695Z,32.72
2023-02-19T00:46:43.642Z,24.50
2023-02-19T00:49:24.372Z,28.55
2023-02-19T00:51:53.452Z,26.30
2023-02-19T00:54:41.098Z,26.42
2023-02-19T00:57:09.567Z,24.92
2023-02-19T00:59:39.421Z,29.15
2023-02-19T01:02:07.739Z,31.48
2023-02-19T01:04:37.562Z,31.60
2023-02-19T01:07:09.110Z,30.38
2023-02-19T01:09:39.858Z,32.05
2023-02-19T01:12:08.343Z,30.45
2023-02-19T01:14:40.463Z,29.17
2023-02-19T01:17:16.171Z,32.30
2023-02-19T01:20:06.312Z,36.25
2023-02-19T01:22:56.206Z,31.30
2023-02-19T01:25:32.597Z,33.97
2023-02-19T01:28:01.957Z,34.83
2023-02-19T01:30:37.016Z,33.85
2023-02-19T01:33:27.104Z,35.28
2023-02-19T01:35:58.656Z,36.88
2023-02-19T01:38:39.766Z,32.42
2023-02-19T01:41:26.707Z,33.28
2023-02-19T01:44:18.210Z,37.30
2023-02-19T01:47:05.808Z,42.70
2023-02-19T01:49:48.669Z,37.17
2023-02-19T01:52:21.575Z,40.58
2023-02-19T01:55:09.150Z,43.83
2023-02-19T01:57:57.246Z,34.45
2023-02-19T02:00:40.717Z,41.55
2023-02-19T02:03:28.626Z,43.35
2023-02-19T02:06:23.070Z,36.88
2023-02-19T02:09:24.467Z,45.22
2023-02-19T02:12:12.720Z,36.70
2023-02-19T02:15:00.464Z,46.40
2023-02-19T02:17:50.341Z,42.88
2023-02-19T02:20:32.763Z,46.10
2023-02-19T02:23:04.661Z,42.67
2023-02-19T02:25:34.682Z,41.05
2023-02-19T02:28:06.376Z,44.97
2023-02-19T02:31:06.319Z,40.15
2023-02-19T02:33:49.774Z,45.65
2023-02-19T02:36:25.171Z,43.42
2023-02-19T02:39:01.104Z,42.63
2023-02-19T02:42:12.827Z,45.75
2023-02-19T02:45:03.092Z,51.77
2023-02-19T02:47:53.928Z,45.60
2023-02-19T02:50:47.097Z,47.70
2023-02-19T02:53:55.617Z,40.95
2023-02-19T02:59:20.886Z,49.17
2023-02-19T03:02:12.329Z,43.92
2023-02-19T03:05:22.622Z,47.58
2023-02-19T03:08:10.842Z,44.58
2023-02-19T03:10:45.936Z,42.40
2023-02-19T03:13:36.425Z,43.90
2023-02-19T03:16:45.655Z,53.42
2023-02-19T03:19:21.937Z,43.88
2023-02-19T03:22:09.788Z,45.75
2023-02-19T03:24:59.811Z,43.60
2023-02-19T03:27:29.485Z,45.35
2023-02-19T03:30:18.939Z,45.08
2023-02-19T03:33:15.356Z,49.97
2023-02-19T03:35:59.007Z,42.63
2023-02-19T03:38:50.060Z,49.63
2023-02-19T03:41:48.948Z,42.33
2023-02-19T03:44:45.816Z,43.83
2023-02-19T03:47:28.858Z,49.92
2023-02-19T03:50:15.007Z,42.58
2023-02-19T03:52:54.788Z,44.10
2023-02-19T03:55:33.438Z,50.90
2023-02-19T03:58:24.725Z,50.25
2023-02-19T04:00:55.134Z,44.45
2023-02-19T04:03:36.261Z,46.53
2023-02-19T04:06:08.934Z,40.58
2023-02-19T04:08:37.960Z,47.40
2023-02-19T04:11:09.944Z,42.25
2023-02-19T04:13:59.346Z,44.00
2023-02-19T04:16:42.802Z,39.42
2023-02-19T04:19:17.829Z,44.03
2023-02-19T04:22:02.582Z,46.10
2023-02-19T04:24:43.853Z,51.40
2023-02-19T04:27:12.596Z,46.38
2023-02-19T04:29:40.846Z,43.03
2023-02-19T04:32:10.890Z,36.35
2023-02-19T04:34:44.159Z,50.58
2023-02-19T04:37:15.868Z,38.80
2023-02-19T04:39:44.462Z,42.72
2023-02-19T04:42:13.098Z,47.80
2023-02-19T04:44:46.009Z,37.33
2023-02-19T04:47:17.804Z,42.40
2023-02-19T04:49:48.884Z,41.65
2023-02-19T04:52:17.420Z,37.10
2023-02-19T04:54:46.247Z,34.95
2023-02-19T04:57:36.625Z,50.58
2023-02-19T05:00:13.458Z,49.67
2023-02-19T05:03:01.648Z,45.30
2023-02-19T05:05:31.147Z,40.95
2023-02-19T05:08:00.856Z,36.88
2023-02-19T05:10:30.203Z,39.70
2023-02-19T05:12:58.748Z,37.97
2023-02-19T05:15:27.121Z,32.75
2023-02-19T05:18:05.245Z,30.75
2023-02-19T05:20:36.067Z,39.65
2023-02-19T05:23:04.759Z,45.20
2023-02-19T05:25:35.881Z,36.60
2023-02-19T05:28:28.658Z,42.97
2023-02-19T05:31:16.247Z,32.53
2023-02-19T05:34:03.964Z,39.65
2023-02-19T05:36:53.806Z,41.40
2023-02-19T05:39:22.246Z,43.65
2023-02-19T05:41:54.688Z,35.72
2023-02-19T05:44:23.003Z,35.63
2023-02-19T05:46:51.716Z,35.53
2023-02-19T05:49:21.480Z,46.47
2023-02-19T05:51:52.509Z,45.38
2023-02-19T05:54:23.285Z,43.03
2023-02-19T05:56:52.808Z,33.50
2023-02-19T05:59:27.519Z,45.80
2023-02-19T06:02:13.679Z,48.63
2023-02-19T06:04:42.043Z,43.47
2023-02-19T06:07:10.743Z,46.60
2023-02-19T06:09:45.397Z,38.60
2023-02-19T06:12:25.248Z,52.45
2023-02-19T06:14:55.168Z,40.13
2023-02-19T06:17:45.255Z,46.42
2023-02-19T06:20:26.001Z,41.08
2023-02-19T06:22:54.785Z,49.20
2023-02-19T06:25:40.457Z,34.60
2023-02-19T06:28:12.596Z,39.50
2023-02-19T06:30:42.594Z,30.10
2023-02-19T06:33:24.716Z,35.50
2023-02-19T06:35:55.574Z,38.30
2023-02-19T06:38:26.212Z,37.28
2023-02-19T06:41:01.004Z,41.72
2023-02-19T06:43:38.331Z,38.72
2023-02-19T06:46:08.177Z,45.97
2023-02-19T06:48:36.825Z,37.58
2023-02-19T06:51:05.524Z,42.30
2023-02-19T06:53:52.866Z,37.50
2023-02-19T06:56:42.217Z,39.60
2023-02-19T06:59:27.911Z,31.40
2023-02-19T07:02:11.674Z,29.70
2023-02-19T07:04:59.223Z,40.25
2023-02-19T07:07:43.145Z,34.85
2023-02-19T07:10:23.418Z,25.20
2023-02-19T07:13:04.091Z,28.83
2023-02-19T07:15:33.220Z,37.58
2023-02-19T07:18:01.565Z,46.28
2023-02-19T07:20:33.779Z,43.13
2023-02-19T07:23:02.100Z,32.42
2023-02-19T07:25:31.236Z,35.15
2023-02-19T07:28:01.203Z,42.72
2023-02-19T07:30:30.820Z,39.30
2023-02-19T07:33:21.066Z,36.60
2023-02-19T07:35:50.503Z,41.95
2023-02-19T07:38:20.105Z,35.95
2023-02-19T07:40:54.310Z,28.90
2023-02-19T07:43:23.202Z,40.38
2023-02-19T07:45:53.977Z,34.90
2023-02-19T07:48:39.364Z,34.65
2023-02-19T07:51:20.320Z,44.65
2023-02-19T07:53:52.769Z,47.65
2023-02-19T07:56:36.777Z,48.55
2023-02-19T07:59:08.680Z,49.10
2023-02-19T08:01:59.390Z,36.65
2023-02-19T08:04:27.771Z,34.08
2023-02-19T08:06:58.944Z,35.40
2023-02-19T08:09:27.833Z,31.25
2023-02-19T08:12:17.393Z,25.95
2023-02-19T08:14:45.907Z,43.22
2023-02-19T08:17:14.883Z,36.10
2023-02-19T08:19:43.697Z,34.65
2023-02-19T08:22:13.083Z,32.25
2023-02-19T08:24:42.983Z,27.25
2023-02-19T08:27:12.144Z,32.35
2023-02-19T08:29:41.210Z,33.92
2023-02-19T08:32:23.050Z,35.63
2023-02-19T08:34:53.764Z,41.75
2023-02-19T08:37:23.244Z,35.30
2023-02-19T08:39:54.428Z,47.38
2023-02-19T08:42:22.995Z,39.33
2023-02-19T08:44:56.269Z,44.22
2023-02-19T08:47:40.341Z,48.75
2023-02-19T08:50:26.920Z,36.47
2023-02-19T08:52:59.803Z,43.30
2023-02-19T08:55:49.646Z,39.60
2023-02-19T08:58:37.521Z,40.20
2023-02-19T09:01:25.152Z,30.60
2023-02-19T09:03:55.354Z,37.65
2023-02-19T09:06:28.659Z,44.90
2023-02-19T09:08:57.008Z,34.50
2023-02-19T09:11:29.159Z,31.92
2023-02-19T09:14:05.991Z,28.52
2023-02-19T09:16:36.256Z,29.95
2023-02-19T09:19:05.714Z,31.50
2023-02-19T09:21:36.750Z,37.17
2023-02-19T09:24:05.391Z,40.35
2023-02-19T09:26:38.577Z,28.85
2023-02-19T09:29:09.127Z,29.60
2023-02-19T09:31:38.071Z,42.88
2023-02-19T09:34:07.095Z,31.15
2023-02-19T09:36:39.182Z,31.45
2023-02-19T09:39:12.518Z,22.42
2023-02-19T09:41:47.123Z,33.50
2023-02-19T09:44:19.501Z,24.85
2023-02-19T09:46:49.734Z,28.30
2023-02-19T09:49:25.971Z,28.42
2023-02-19T09:52:01.993Z,31.58
2023-02-19T09:54:32.970Z,25.52
2023-02-19T09:57:02.086Z,26.88
2023-02-19T09:59:47.351Z,26.95
2023-02-19T10:02:17.073Z,22.25
2023-02-19T10:04:48.157Z,17.45
2023-02-19T10:07:19.248Z,14.05
2023-02-19T10:09:54.341Z,16.50
2023-02-19T10:12:30.092Z,11.27
2023-02-19T10:15:05.621Z,21.33
2023-02-19T10:17:37.383Z,27.77
2023-02-19T10:20:05.832Z,15.23
2023-02-19T10:22:38.300Z,17.73
2023-02-19T10:25:06.984Z,27.00
2023-02-19T10:27:36.583Z,22.40
2023-02-19T10:30:06.297Z,21.77
2023-02-19T10:32:58.530Z,17.08
2023-02-19T10:35:30.083Z,20.35
2023-02-19T10:37:58.634Z,18.42
2023-02-19T10:40:29.762Z,22.90
2023-02-19T10:42:59.881Z,23.52
2023-02-19T10:45:31.330Z,29.13
2023-02-19T10:47:59.522Z,19.27
2023-02-19T10:50:30.784Z,19.60
2023-02-19T10:53:00.777Z,17.45
2023-02-19T10:55:38.113Z,24.70
2023-02-19T10:58:22.206Z,20.63
2023-02-19T11:01:06.235Z,16.55
2023-02-19T11:03:35.069Z,16.98
2023-02-19T11:06:04.787Z,13.57
2023-02-19T11:08:55.105Z,18.88
2023-02-19T11:11:25.122Z,14.00
2023-02-19T11:13:58.679Z,17.02
2023-02-19T11:16:39.454Z,13.85
2023-02-19T11:19:22.802Z,19.35
2023-02-19T11:21:51.549Z,13.98
2023-02-19T11:24:24.287Z,12.27
2023-02-19T11:26:55.627Z,12.38
2023-02-19T11:29:28.625Z,14.00
2023-02-19T11:31:57.374Z,15.00
2023-02-19T11:34:29.856Z,11.80
2023-02-19T11:37:17.064Z,13.88
2023-02-19T11:39:49.150Z,15.90
2023-02-19T11:42:37.606Z,11.82
2023-02-19T11:45:10.850Z,18.85
2023-02-19T11:47:59.613Z,14.02
2023-02-19T11:50:39.363Z,25.02
2023-02-19T11:53:25.883Z,23.52
2023-02-19T11:55:57.033Z,18.10
2023-02-19T11:58:47.999Z,18.38
2023-02-19T12:01:34.749Z,11.32
2023-02-19T12:04:02.991Z,8.60
2023-02-19T12:06:46.526Z,7.90
2023-02-19T12:09:25.571Z,7.78
2023-02-19T12:12:03.869Z,4.50
2023-02-19T12:14:46.174Z,3.25
2023-02-19T12:17:16.976Z,6.32
2023-02-19T12:20:14.159Z,3.22
2023-02-19T12:22:44.477Z,7.35
2023-02-19T12:25:26.591Z,6.88
2023-02-19T12:28:08.921Z,5.57
2023-02-19T12:30:43.077Z,7.60
2023-02-19T12:33:38.179Z,4.90
2023-02-19T12:36:09.398Z,3.80
2023-02-19T12:38:43.828Z,3.70
2023-02-19T12:41:13.138Z,4.03
2023-02-19T12:43:47.290Z,3.63
2023-02-19T12:46:20.890Z,9.45
2023-02-19T12:49:00.254Z,10.00
2023-02-19T12:51:38.072Z,9.45
2023-02-19T12:54:17.634Z,7.47
2023-02-19T12:57:03.250Z,7.68
2023-02-19T12:59:38.010Z,8.93
2023-02-19T13:02:24.957Z,6.55
2023-02-19T13:05:11.977Z,5.90
2023-02-19T13:07:48.395Z,7.60
2023-02-19T13:10:27.757Z,8.70
2023-02-19T13:13:03.278Z,3.78
2023-02-19T13:15:34.526Z,9.48
2023-02-19T13:18:08.614Z,6.75
2023-02-19T13:20:38.707Z,7.43
2023-02-19T13:23:40.344Z,4.40
2023-02-19T13:26:11.866Z,12.15
2023-02-19T13:28:46.286Z,8.18
2023-02-19T13:31:17.252Z,9.45
2023-02-19T13:34:06.841Z,8.20
2023-02-19T13:36:36.673Z,12.02
2023-02-19T13:39:09.070Z,7.80
2023-02-19T13:41:53.484Z,8.95
2023-02-19T13:44:24.287Z,10.15
2023-02-19T13:46:55.638Z,8.77
2023-02-19T13:49:31.541Z,10.07
2023-02-19T13:52:01.159Z,10.63
2023-02-19T13:54:33.296Z,12.82
2023-02-19T13:57:19.991Z,9.90
2023-02-19T13:59:48.406Z,7.53
2023-02-19T14:02:22.377Z,10.77
2023-02-19T14:04:51.668Z,11.43
2023-02-19T14:07:19.734Z,13.70
2023-02-19T14:09:48.355Z,10.32
2023-02-19T14:12:16.471Z,13.05
2023-02-19T14:14:47.737Z,14.32
2023-02-19T14:17:38.998Z,14.98
2023-02-19T14:20:10.105Z,22.85
2023-02-19T14:22:47.601Z,16.15
2023-02-19T14:25:28.017Z,17.17
2023-02-19T14:28:00.741Z,23.95
2023-02-19T14:30:32.483Z,16.45
2023-02-19T14:33:11.095Z,17.88
2023-02-19T14:35:44.518Z,21.70
2023-02-19T14:38:37.488Z,25.35
2023-02-19T14:41:07.092Z,26.42
2023-02-19T14:43:36.189Z,40.13
2023-02-19T14:46:08.160Z,27.33
2023-02-19T14:48:51.352Z,23.40
2023-02-19T14:51:31.415Z,24.75
2023-02-19T14:54:17.984Z,22.75
2023-02-19T14:56:50.660Z,24.50
2023-02-19T14:59:27.956Z,25.60
2023-02-19T15:02:01.076Z,22.17
2023-02-19T15:04:36.017Z,25.15
2023-02-19T15:07:07.116Z,18.73
2023-02-19T15:09:45.733Z,23.85
2023-02-19T15:12:40.533Z,26.90
2023-02-19T15:15:45.631Z,24.83
2023-02-19T15:21:45.800Z,22.75
2023-02-19T15:24:48.939Z,22.27
2023-02-19T15:27:26.652Z,23.77
2023-02-19T15:29:58.742Z,20.55
2023-02-19T15:32:28.341Z,21.80
2023-02-19T15:34:58.099Z,31.75
2023-02-19T15:37:32.243Z,22.48
2023-02-19T15:40:04.695Z,29.20
2023-02-19T15:42:50.965Z,27.15
2023-02-19T15:45:42.611Z,21.30
2023-02-19T15:55:54.472Z,22.20
2023-02-19T15:58:32.099Z,18.20
2023-02-19T16:01:05.948Z,22.63
2023-02-19T16:03:51.268Z,17.40
2023-02-19T16:06:26.485Z,14.13
2023-02-19T16:09:27.705Z,9.77
2023-02-19T16:12:07.377Z,10.52
2023-02-19T16:23:36.662Z,12.10
2023-02-19T16:34:15.243Z,15.90
2023-02-19T16:41:13.800Z,10.02
2023-02-19T16:43:44.687Z,11.93
2023-02-19T16:46:15.700Z,12.73
2023-02-19T16:48:43.931Z,11.73
2023-02-19T16:51:25.975Z,6.13
2023-02-19T16:54:13.724Z,4.88
2023-02-19T16:56:49.775Z,7.63
2023-02-19T17:03:23.337Z,3.33
2023-02-19T17:06:04.412Z,5.72
2023-02-19T17:08:37.492Z,5.80
2023-02-19T17:11:10.526Z,5.20
2023-02-19T17:14:12.221Z,11.07
2023-02-19T17:20:17.564Z,8.00
2023-02-19T17:23:12.061Z,7.22
2023-02-19T17:30:01.832Z,14.10
2023-02-19T17:36:14.478Z,12.15
2023-02-19T17:39:02.030Z,19.45
2023-02-19T17:41:48.839Z,11.30
2023-02-19T17:44:36.513Z,12.07
2023-02-19T17:47:34.528Z,20.33
2023-02-19T17:50:21.848Z,10.57
2023-02-19T17:53:16.443Z,12.48
2023-02-19T17:56:20.638Z,11.05
2023-02-19T17:58:52.780Z,17.08
2023-02-19T18:01:35.060Z,12.35
2023-02-19T18:12:57.403Z,15.10
2023-02-19T18:16:39.302Z,14.68
2023-02-19T18:19:10.828Z,11.73
2023-02-19T18:21:44.949Z,13.48
2023-02-19T18:24:16.223Z,10.32
2023-02-19T18:27:06.160Z,12.45
2023-02-19T18:30:47.455Z,14.85
2023-02-19T18:33:44.075Z,13.77
2023-02-19T18:36:55.961Z,17.15
2023-02-19T18:39:44.260Z,16.88
2023-02-19T18:42:28.266Z,22.38
2023-02-19T18:45:22.682Z,16.42
2023-02-19T18:48:13.594Z,20.27
2023-02-19T18:50:46.714Z,15.48
2023-02-19T18:53:15.935Z,17.45
2023-02-19T18:55:52.918Z,19.50
2023-02-19T18:58:31.491Z,18.30
2023-02-19T19:01:15.434Z,15.82
2023-02-19T19:04:15.933Z,20.80
2023-02-19T19:07:04.486Z,16.33
2023-02-19T19:09:52.319Z,20.60
2023-02-19T19:13:13.412Z,17.50
2023-02-19T19:15:42.113Z,16.10
2023-02-19T19:18:15.679Z,17.30
2023-02-19T19:20:48.869Z,23.95
2023-02-19T19:23:52.952Z,35.88
2023-02-19T19:26:44.339Z,18.27
2023-02-19T19:29:19.146Z,15.60
2023-02-19T19:32:02.242Z,15.40
2023-02-19T19:37:55.772Z,16.65
2023-02-19T19:40:59.426Z,18.17
2023-02-19T19:48:20.858Z,16.50
2023-02-19T19:51:04.769Z,13.80
2023-02-19T19:56:57.362Z,15.07
2023-02-19T19:59:52.260Z,11.07
2023-02-19T20:03:08.038Z,13.45
2023-02-19T20:09:11.581Z,11.38
2023-02-19T20:11:59.334Z,12.60
2023-02-19T20:14:51.433Z,15.05
2023-02-19T20:17:40.063Z,10.27
2023-02-19T20:20:12.389Z,9.60
2023-02-19T20:22:55.659Z,11.63
2023-02-19T20:26:05.305Z,7.38
2023-02-19T20:28:50.733Z,13.70
2023-02-19T20:31:39.075Z,8.25
2023-02-19T20:34:10.160Z,6.60
2023-02-19T20:36:59.181Z,7.55
2023-02-19T20:39:45.380Z,4.60
2023-02-19T20:42:37.815Z,5.15
2023-02-19T20:45:06.786Z,6.22
2023-02-19T20:47:40.264Z,5.88
2023-02-19T20:50:09.765Z,6.68
2023-02-19T20:52:42.656Z,4.82
2023-02-19T20:55:11.806Z,6.35
2023-02-19T21:00:37.782Z,3.95
2023-02-19T21:03:24.294Z,3.45
2023-02-19T21:06:09.975Z,3.90
2023-02-19T21:08:48.814Z,3.40
2023-02-19T21:11:39.206Z,5.70
2023-02-19T21:14:19.884Z,6.03
2023-02-19T21:16:49.091Z,5.40
2023-02-19T21:19:17.883Z,6.38
2023-02-19T21:21:48.891Z,7.25
2023-02-19T21:24:22.197Z,6.45
2023-02-19T21:26:51.584Z,4.72
2023-02-19T21:29:23.870Z,3.97
2023-02-19T21:31:54.371Z,3.65
2023-02-19T21:34:25.987Z,6.07
2023-02-19T21:37:04.727Z,4.07
2023-02-19T21:39:42.812Z,4.07
2023-02-19T21:42:28.504Z,5.15
2023-02-19T21:45:03.593Z,2.97
2023-02-19T21:47:52.119Z,6.45
2023-02-19T21:50:28.094Z,2.95
2023-02-19T21:53:15.485Z,7.35
2023-02-19T21:56:03.041Z,3.13
2023-02-19T21:58:35.672Z,5.30
2023-02-19T22:01:04.156Z,5.15
2023-02-19T22:03:36.608Z,5.30
2023-02-19T22:06:05.331Z,6.25
2023-02-19T22:08:36.176Z,4.90
2023-02-19T22:11:06.969Z,3.00
2023-02-19T22:13:41.367Z,3.17
2023-02-19T22:16:15.432Z,3.33
2023-02-19T22:18:51.960Z,2.88
2023-02-19T22:21:33.350Z,2.72
2023-02-19T22:24:03.520Z,2.45
2023-02-19T22:26:34.734Z,3.50
2023-02-19T22:29:08.325Z,2.50
2023-02-19T22:31:52.858Z,3.58
2023-02-19T22:34:21.919Z,6.75
2023-02-19T22:36:52.873Z,2.85
2023-02-19T22:39:23.243Z,2.47
2023-02-19T22:41:55.830Z,4.13
2023-02-19T22:44:26.623Z,3.45
2023-02-19T22:47:04.779Z,3.10
2023-02-19T22:49:43.129Z,3.05
2023-02-19T22:52:13.503Z,1.90
2023-02-19T22:54:56.142Z,5.40
2023-02-19T22:57:46.428Z,3.50
2023-02-19T23:00:17.806Z,3.65
2023-02-19T23:03:07.935Z,5.47
2023-02-19T23:05:38.356Z,2.03
2023-02-19T23:08:07.197Z,2.08
2023-02-19T23:10:36.605Z,2.10
2023-02-19T23:13:19.040Z,2.60
2023-02-19T23:15:50.906Z,2.63
2023-02-19T23:18:29.942Z,4.22
2023-02-19T23:21:02.781Z,3.57
2023-02-19T23:23:34.513Z,3.20
2023-02-19T23:26:12.499Z,4.35
2023-02-19T23:28:56.273Z,2.90
2023-02-19T23:31:26.928Z,3.45
2023-02-19T23:34:07.892Z,3.75
2023-02-19T23:36:47.060Z,3.30
2023-02-19T23:39:17.876Z,4.32
2023-02-19T23:41:47.211Z,7.03
2023-02-19T23:44:22.373Z,8.00
2023-02-19T23:46:54.030Z,9.95
2023-02-19T23:49:22.445Z,6.50
2023-02-19T23:51:53.445Z,8.18
2023-02-19T23:54:22.969Z,17.10
2023-02-19T23:56:54.692Z,12.23
2023-02-19T23:59:44.806Z,10.20
